Time;durP1;ratioP1;P1;durP2;ratioP2;P2;SDS_P1;SDS_P2;PMS_P1;PMS_P2;Temp;Humidity;BMP_temperature;BMP_pressure;BME280_temperature;BME280_humidity;BME280_pressure;Samples;Min_cycle;Max_cycle;Signal;HPM_P1;HPM_P2
2023/07/08 00:00:19;;;;;;;4.93;4.53;;;28.60;42.40;;;;;;4968193;28;20519;-78
2023/07/08 00:02:48;;;;;;;4.40;4.10;;;28.60;42.60;;;;;;4970808;28;20496;-78
2023/07/08 00:05:19;;;;;;;5.67;5.17;;;28.50;42.50;;;;;;4967762;28;20933;-78
2023/07/08 00:07:48;;;;;;;4.50;4.20;;;28.50;42.50;;;;;;4969244;28;20465;-79
2023/07/08 00:10:17;;;;;;;4.27;3.97;;;28.50;42.50;;;;;;4974988;28;20473;-78
2023/07/08 00:12:48;;;;;;;4.40;4.10;;;28.50;42.60;;;;;;4969187;28;20484;-78
2023/07/08 00:15:16;;;;;;;4.63;4.23;;;28.50;42.60;;;;;;4964288;28;20497;-78
2023/07/08 00:17:44;;;;;;;4.80;4.40;;;28.50;42.70;;;;;;4968805;28;20526;-78
2023/07/08 00:20:17;;;;;;;4.67;4.27;;;28.40;42.80;;;;;;4969744;28;20503;-78
2023/07/08 00:22:49;;;;;;;4.87;4.47;;;28.40;42.80;;;;;;4970678;28;20470;-78
2023/07/08 00:25:19;;;;;;;4.23;3.93;;;28.40;42.80;;;;;;4973610;28;20436;-78
2023/07/08 00:27:48;;;;;;;5.17;3.83;;;28.40;42.80;;;;;;4975831;28;20486;-79
2023/07/08 00:30:20;;;;;;;4.03;3.77;;;28.40;42.90;;;;;;4971971;28;20532;-78
2023/07/08 00:32:53;;;;;;;4.13;3.83;;;28.30;42.80;;;;;;4969951;28;20536;-79
2023/07/08 00:35:23;;;;;;;4.70;4.40;;;28.30;42.90;;;;;;4962243;28;20464;-81
2023/07/08 00:38:01;;;;;;;4.10;3.57;;;28.30;42.90;;;;;;4969720;28;20522;-79
2023/07/08 00:40:29;;;;;;;4.37;4.07;;;28.20;43.10;;;;;;4967191;28;20436;-81
2023/07/08 00:42:59;;;;;;;7.57;4.43;;;28.20;43.10;;;;;;4973266;28;20540;-78
2023/07/08 00:45:40;;;;;;;4.07;3.77;;;28.20;43.10;;;;;;4980178;28;20482;-78
2023/07/08 00:48:30;;;;;;;4.60;4.20;;;28.20;43.20;;;;;;4971205;28;20445;-78
2023/07/08 00:50:58;;;;;;;4.37;3.90;;;28.20;43.30;;;;;;4971118;28;20441;-77
2023/07/08 00:53:28;;;;;;;3.63;3.43;;;28.10;43.20;;;;;;4969919;28;20463;-79
2023/07/08 00:55:58;;;;;;;4.30;3.87;;;28.10;43.30;;;;;;4974414;28;20448;-78
2023/07/08 00:58:30;;;;;;;3.67;3.37;;;28.10;43.30;;;;;;4975454;28;20434;-77
2023/07/08 01:00:58;;;;;;;4.00;3.70;;;28.10;43.40;;;;;;4972458;28;20463;-77
2023/07/08 01:03:27;;;;;;;4.17;3.93;;;28.10;43.50;;;;;;4975600;28;20444;-80
2023/07/08 01:05:59;;;;;;;4.00;3.67;;;28.00;43.40;;;;;;4973585;28;20461;-78
2023/07/08 01:08:30;;;;;;;3.90;3.60;;;28.00;43.40;;;;;;4967760;28;20466;-80
2023/07/08 01:11:01;;;;;;;4.00;3.77;;;28.00;43.50;;;;;;4979235;28;20950;-77
2023/07/08 01:13:34;;;;;;;3.70;3.40;;;28.00;43.60;;;;;;4975715;28;20469;-77
2023/07/08 01:16:02;;;;;;;4.13;3.73;;;27.90;43.50;;;;;;4974290;28;20420;-78
2023/07/08 01:18:30;;;;;;;3.90;3.60;;;27.90;43.60;;;;;;4968665;28;20462;-78
2023/07/08 01:21:06;;;;;;;3.93;3.53;;;27.90;43.70;;;;;;4966858;28;20509;-77
2023/07/08 01:23:36;;;;;;;3.90;3.60;;;27.80;43.70;;;;;;4979149;28;20523;-78
2023/07/08 01:26:04;;;;;;;3.37;3.17;;;27.80;43.80;;;;;;4974980;28;20508;-77
2023/07/08 01:28:32;;;;;;;3.83;3.63;;;27.80;44.40;;;;;;4968688;28;20549;-81
2023/07/08 01:31:01;;;;;;;6.00;3.83;;;27.80;43.80;;;;;;4978585;28;20955;-79
2023/07/08 01:33:34;;;;;;;3.87;3.57;;;27.80;43.80;;;;;;4970555;28;20474;-76
2023/07/08 01:36:02;;;;;;;3.40;3.17;;;27.70;43.80;;;;;;4974350;28;20465;-77
2023/07/08 01:38:30;;;;;;;5.70;3.70;;;27.70;43.90;;;;;;4972473;28;20424;-76
2023/07/08 01:40:59;;;;;;;3.60;3.27;;;27.70;43.90;;;;;;4974261;28;20534;-77
2023/07/08 01:43:28;;;;;;;3.43;3.13;;;27.70;43.80;;;;;;4978122;28;20458;-77
2023/07/08 01:45:56;;;;;;;3.50;3.30;;;27.70;43.90;;;;;;4974321;28;20413;-77
2023/07/08 01:48:24;;;;;;;4.10;3.80;;;27.70;44.00;;;;;;4974246;28;20420;-76
2023/07/08 01:50:56;;;;;;;3.50;3.30;;;27.60;43.80;;;;;;4963333;28;20455;-77
2023/07/08 01:53:30;;;;;;;3.80;3.50;;;27.60;44.10;;;;;;4968849;28;20480;-76
2023/07/08 01:56:00;;;;;;;3.77;3.50;;;27.60;44.60;;;;;;4974920;28;20456;-77
2023/07/08 01:58:27;;;;;;;3.97;3.77;;;27.60;44.10;;;;;;4974055;28;20569;-77
2023/07/08 02:00:56;;;;;;;4.37;3.33;;;27.60;44.10;;;;;;4974624;28;20446;-76
2023/07/08 02:03:24;;;;;;;3.53;3.33;;;27.60;44.10;;;;;;4974322;28;20466;-76
2023/07/08 02:05:52;;;;;;;3.53;3.20;;;27.60;44.20;;;;;;4974885;28;20441;-76
2023/07/08 02:08:20;;;;;;;3.47;3.17;;;27.50;44.10;;;;;;4974562;28;20416;-76
2023/07/08 02:10:49;;;;;;;3.90;3.70;;;27.60;44.30;;;;;;4968670;28;20549;-76
2023/07/08 02:13:18;;;;;;;3.70;3.40;;;27.50;44.20;;;;;;4973271;28;20448;-76
2023/07/08 02:15:47;;;;;;;2.93;2.83;;;27.50;44.20;;;;;;4973780;28;20518;-76
2023/07/08 02:18:15;;;;;;;3.67;3.37;;;27.50;44.20;;;;;;4974904;28;20473;-76
2023/07/08 02:20:43;;;;;;;3.17;2.97;;;27.50;44.20;;;;;;4975843;28;20422;-76
2023/07/08 02:23:11;;;;;;;3.17;2.97;;;27.50;44.30;;;;;;4976222;28;20468;-76
2023/07/08 02:25:39;;;;;;;3.53;3.33;;;27.40;44.40;;;;;;4972295;28;20453;-77
2023/07/08 02:28:07;;;;;;;4.40;3.20;;;27.40;44.30;;;;;;4972039;28;20417;-76
2023/07/08 02:30:36;;;;;;;8.63;6.80;;;27.40;44.30;;;;;;4968669;28;20565;-76
2023/07/08 02:33:04;;;;;;;8.60;7.63;;;27.40;44.30;;;;;;4974624;28;20986;-76
2023/07/08 02:35:32;;;;;;;10.90;8.87;;;27.40;44.50;;;;;;4977421;28;20449;-77
2023/07/08 02:38:00;;;;;;;7.80;6.77;;;27.40;44.40;;;;;;4969364;28;20560;-77
2023/07/08 02:40:28;;;;;;;10.60;8.13;;;27.30;44.40;;;;;;4973909;28;20585;-77
2023/07/08 02:42:55;;;;;;;11.00;8.90;;;27.40;44.40;;;;;;4973810;28;20626;-77
2023/07/08 02:45:23;;;;;;;10.17;8.47;;;27.30;44.50;;;;;;4971820;28;20413;-77
2023/07/08 02:47:52;;;;;;;9.80;8.40;;;27.30;44.40;;;;;;4972877;28;20449;-77
2023/07/08 02:50:20;;;;;;;10.20;9.10;;;27.30;44.50;;;;;;4980048;28;20478;-77
2023/07/08 02:52:48;;;;;;;11.33;9.70;;;27.30;44.70;;;;;;4973583;28;20470;-77
2023/07/08 02:55:16;;;;;;;12.00;10.30;;;27.20;44.50;;;;;;4981033;28;20540;-76
2023/07/08 02:57:45;;;;;;;12.97;10.60;;;27.20;44.60;;;;;;4973660;28;20413;-77
2023/07/08 03:00:14;;;;;;;12.57;10.07;;;27.20;44.70;;;;;;4979651;28;20503;-77
2023/07/08 03:02:42;;;;;;;12.83;11.00;;;27.20;44.60;;;;;;4970132;28;20479;-77
2023/07/08 03:05:12;;;;;;;11.00;9.80;;;27.20;44.70;;;;;;4969810;28;20429;-77
2023/07/08 03:07:40;;;;;;;12.80;10.67;;;27.20;44.60;;;;;;4970196;28;20532;-78
2023/07/08 03:10:09;;;;;;;14.33;10.70;;;27.10;44.80;;;;;;4973886;28;20471;-76
2023/07/08 03:12:37;;;;;;;15.40;10.83;;;27.20;44.70;;;;;;4973437;28;20553;-77
2023/07/08 03:15:06;;;;;;;13.43;10.70;;;27.10;44.70;;;;;;4978091;28;20500;-77
2023/07/08 03:17:34;;;;;;;16.37;11.00;;;27.10;44.60;;;;;;4972284;28;20529;-77
2023/07/08 03:20:05;;;;;;;12.70;10.70;;;27.00;44.90;;;;;;4973277;28;20438;-77
2023/07/08 03:22:34;;;;;;;13.00;10.63;;;27.00;44.80;;;;;;4968145;28;20465;-77
2023/07/08 03:25:02;;;;;;;16.10;11.93;;;27.00;45.00;;;;;;4968196;28;20449;-76
2023/07/08 03:27:30;;;;;;;14.33;11.07;;;27.00;44.80;;;;;;4976021;28;20479;-77
2023/07/08 03:29:58;;;;;;;13.23;11.00;;;27.00;44.90;;;;;;4976263;28;20576;-77
2023/07/08 03:32:26;;;;;;;14.17;12.00;;;27.00;45.10;;;;;;4972920;28;20548;-77
2023/07/08 03:34:54;;;;;;;12.37;10.57;;;27.00;44.90;;;;;;4972428;28;20424;-77
2023/07/08 03:37:22;;;;;;;14.17;11.00;;;27.00;44.90;;;;;;4970126;28;20445;-75
2023/07/08 03:39:51;;;;;;;15.73;11.63;;;27.00;45.00;;;;;;4964637;28;20478;-76
2023/07/08 03:42:19;;;;;;;13.90;10.93;;;27.00;45.00;;;;;;4971414;28;20906;-76
2023/07/08 03:44:47;;;;;;;14.10;11.87;;;26.90;44.80;;;;;;4967238;28;20442;-77
2023/07/08 03:47:14;;;;;;;14.23;11.50;;;26.90;45.10;;;;;;4964325;28;20471;-78
2023/07/08 03:49:42;;;;;;;11.73;9.93;;;26.90;45.00;;;;;;4972063;28;20446;-77
2023/07/08 03:52:12;;;;;;;14.60;11.10;;;26.90;45.00;;;;;;4972141;28;20536;-76
2023/07/08 03:54:40;;;;;;;15.63;12.23;;;26.90;45.10;;;;;;4961314;28;20581;-76
2023/07/08 03:57:09;;;;;;;12.47;10.37;;;26.90;45.20;;;;;;4965536;28;20454;-75
2023/07/08 03:59:36;;;;;;;13.00;10.67;;;26.90;45.00;;;;;;4972243;28;20442;-75
2023/07/08 04:02:05;;;;;;;11.30;9.40;;;26.90;45.10;;;;;;4972274;28;20465;-75
2023/07/08 04:04:35;;;;;;;13.43;10.63;;;26.90;45.30;;;;;;4972116;28;20476;-75
2023/07/08 04:07:02;;;;;;;11.57;10.13;;;26.90;45.10;;;;;;4970720;28;20459;-76
2023/07/08 04:09:30;;;;;;;13.37;9.87;;;26.90;45.20;;;;;;4971956;28;20443;-76
2023/07/08 04:11:59;;;;;;;12.93;10.50;;;26.80;45.20;;;;;;4971077;28;20577;-75
2023/07/08 04:14:28;;;;;;;11.53;9.60;;;26.90;45.30;;;;;;4971858;28;20473;-75
2023/07/08 04:16:58;;;;;;;10.80;9.70;;;26.80;45.20;;;;;;4968103;28;20413;-76
2023/07/08 04:19:26;;;;;;;11.87;9.80;;;26.80;45.10;;;;;;4971980;28;20441;-76
2023/07/08 04:21:54;;;;;;;11.40;9.67;;;26.80;45.40;;;;;;4971688;28;20412;-76
2023/07/08 04:24:22;;;;;;;12.00;9.93;;;26.80;45.30;;;;;;4969946;28;20467;-76
2023/07/08 04:26:52;;;;;;;12.53;10.00;;;26.80;45.30;;;;;;4964876;28;20498;-76
2023/07/08 04:29:21;;;;;;;10.30;9.30;;;26.80;45.40;;;;;;4971906;28;20489;-77
2023/07/08 04:31:50;;;;;;;11.53;9.30;;;26.80;45.20;;;;;;4977990;28;20444;-76
2023/07/08 04:34:18;;;;;;;14.17;9.10;;;26.80;45.00;;;;;;4974471;28;20516;-76
2023/07/08 04:36:46;;;;;;;9.40;8.40;;;26.80;45.80;;;;;;4971516;28;20902;-76
2023/07/08 04:39:14;;;;;;;12.13;9.87;;;26.70;45.10;;;;;;4971725;28;20504;-76
2023/07/08 04:41:43;;;;;;;10.23;9.00;;;26.70;45.30;;;;;;4971931;28;20474;-76
2023/07/08 04:44:11;;;;;;;9.87;8.40;;;26.70;45.30;;;;;;4971550;28;20464;-76
2023/07/08 04:46:40;;;;;;;11.10;8.73;;;26.70;45.30;;;;;;4971004;28;20485;-76
2023/07/08 04:49:10;;;;;;;12.20;9.60;;;26.70;45.20;;;;;;4971214;28;20407;-76
2023/07/08 04:51:38;;;;;;;11.10;8.10;;;26.70;45.30;;;;;;4962932;28;20573;-76
2023/07/08 04:54:07;;;;;;;9.80;8.80;;;26.70;45.40;;;;;;4968675;28;20556;-76
2023/07/08 04:56:36;;;;;;;9.43;8.40;;;26.70;45.30;;;;;;4968833;28;20467;-76
2023/07/08 04:59:04;;;;;;;9.30;8.00;;;26.70;45.30;;;;;;4971543;28;20441;-76
2023/07/08 05:01:32;;;;;;;10.23;8.50;;;26.70;45.30;;;;;;4956958;28;20464;-76
2023/07/08 05:04:01;;;;;;;13.23;8.93;;;26.70;45.30;;;;;;4965749;28;21004;-76
2023/07/08 05:06:30;;;;;;;10.30;7.67;;;26.70;45.50;;;;;;4973461;28;20416;-76
2023/07/08 05:08:59;;;;;;;9.00;7.67;;;26.70;45.10;;;;;;4982941;28;20813;-76
2023/07/08 05:11:27;;;;;;;8.47;7.57;;;26.80;45.40;;;;;;4964431;28;20484;-76
2023/07/08 05:13:55;;;;;;;9.27;7.97;;;26.70;45.30;;;;;;4979767;28;20437;-76
2023/07/08 05:16:23;;;;;;;8.77;7.87;;;26.80;45.40;;;;;;4973518;28;20421;-76
2023/07/08 05:18:51;;;;;;;8.67;7.83;;;26.80;45.10;;;;;;4977201;28;20450;-76
2023/07/08 05:21:19;;;;;;;7.93;7.13;;;26.70;45.20;;;;;;4970362;28;20457;-77
2023/07/08 05:23:49;;;;;;;7.23;6.53;;;26.70;45.20;;;;;;4973165;28;20439;-76
2023/07/08 05:26:17;;;;;;;10.30;7.63;;;26.70;45.20;;;;;;4986211;28;21045;-76
2023/07/08 05:28:45;;;;;;;8.10;7.30;;;26.70;45.40;;;;;;4975307;28;20463;-76
2023/07/08 05:31:13;;;;;;;8.00;7.20;;;26.70;45.20;;;;;;4964619;28;20475;-76
2023/07/08 05:33:41;;;;;;;7.50;6.77;;;26.80;45.20;;;;;;4980732;28;20502;-76
2023/07/08 05:36:09;;;;;;;8.00;7.20;;;26.80;45.30;;;;;;4982404;28;20518;-76
2023/07/08 05:38:38;;;;;;;7.33;6.60;;;26.80;45.20;;;;;;4986665;28;20448;-76
2023/07/08 05:41:07;;;;;;;7.60;6.83;;;26.90;45.00;;;;;;4981371;28;20424;-78
2023/07/08 05:43:35;;;;;;;8.03;6.53;;;26.90;45.20;;;;;;4973852;28;20465;-76
2023/07/08 05:46:04;;;;;;;7.57;6.77;;;26.90;45.00;;;;;;4986136;28;20510;-76
2023/07/08 05:48:38;;;;;;;7.70;6.93;;;26.90;45.10;;;;;;4977187;28;20487;-76
2023/07/08 05:51:06;;;;;;;6.93;6.23;;;26.90;45.10;;;;;;4972684;28;20528;-76
2023/07/08 05:53:34;;;;;;;8.17;6.67;;;26.90;45.20;;;;;;4986127;28;20523;-76
2023/07/08 05:56:03;;;;;;;6.57;5.97;;;26.90;45.10;;;;;;4975250;28;20518;-76
2023/07/08 05:58:32;;;;;;;6.73;6.13;;;27.00;45.00;;;;;;4984655;28;20424;-76
2023/07/08 06:01:00;;;;;;;7.30;6.60;;;27.00;45.00;;;;;;4986398;28;20424;-76
2023/07/08 06:03:29;;;;;;;6.80;5.90;;;27.00;44.90;;;;;;4973343;28;20452;-76
2023/07/08 06:05:57;;;;;;;9.87;6.00;;;27.00;44.90;;;;;;4974076;28;20470;-76
2023/07/08 06:08:25;;;;;;;6.53;5.93;;;27.00;45.00;;;;;;4974474;28;20421;-76
2023/07/08 06:10:53;;;;;;;6.03;5.53;;;27.00;44.80;;;;;;4979973;28;20453;-76
2023/07/08 06:13:21;;;;;;;6.33;5.70;;;27.00;44.80;;;;;;4984304;28;20473;-77
2023/07/08 06:15:50;;;;;;;6.23;5.73;;;27.00;44.80;;;;;;4982288;28;20429;-76
2023/07/08 06:18:19;;;;;;;6.20;5.60;;;27.00;44.90;;;;;;4984741;28;20431;-74
2023/07/08 06:20:52;;;;;;;5.67;5.23;;;27.10;44.80;;;;;;4979269;28;20443;-76
2023/07/08 06:23:20;;;;;;;6.03;5.43;;;27.10;44.70;;;;;;4970283;28;20504;-76
2023/07/08 06:25:49;;;;;;;6.10;5.57;;;27.20;44.80;;;;;;4985449;28;20446;-76
2023/07/08 06:28:16;;;;;;;6.90;5.60;;;27.20;44.60;;;;;;4982768;28;20890;-76
2023/07/08 06:30:44;;;;;;;5.90;5.40;;;27.20;44.70;;;;;;4981336;28;20517;-77
2023/07/08 06:33:14;;;;;;;6.20;5.70;;;27.20;44.70;;;;;;4981643;28;20555;-77
2023/07/08 06:35:42;;;;;;;5.87;5.27;;;27.30;44.70;;;;;;4978987;28;20435;-77
2023/07/08 06:38:11;;;;;;;5.47;5.07;;;27.30;44.60;;;;;;4981023;28;20473;-77
2023/07/08 06:40:39;;;;;;;6.00;5.47;;;27.30;44.60;;;;;;4982237;28;20430;-77
2023/07/08 06:43:06;;;;;;;5.70;5.17;;;27.40;44.60;;;;;;4981727;28;20463;-77
2023/07/08 06:45:35;;;;;;;5.43;5.03;;;27.40;44.70;;;;;;4980247;28;20486;-77
2023/07/08 06:48:02;;;;;;;6.47;5.57;;;27.50;44.50;;;;;;4985370;28;20419;-77
2023/07/08 06:50:32;;;;;;;5.67;5.17;;;27.50;44.50;;;;;;4983304;28;20438;-77
2023/07/08 06:53:00;;;;;;;5.87;5.40;;;27.50;44.50;;;;;;4965207;28;20464;-76
2023/07/08 06:55:28;;;;;;;5.20;4.80;;;27.60;44.50;;;;;;4981805;28;20448;-77
2023/07/08 06:57:56;;;;;;;4.90;4.50;;;27.60;44.40;;;;;;4981818;28;20513;-77
2023/07/08 07:00:24;;;;;;;5.77;5.10;;;27.70;44.30;;;;;;4982556;28;20513;-77
2023/07/08 07:02:52;;;;;;;5.10;4.70;;;27.70;44.30;;;;;;4984563;28;20996;-77
2023/07/08 07:05:21;;;;;;;5.33;4.90;;;27.80;44.30;;;;;;4979767;28;20508;-77
2023/07/08 07:07:52;;;;;;;5.13;4.63;;;27.80;44.10;;;;;;4977122;28;20450;-77
2023/07/08 07:10:20;;;;;;;5.20;4.80;;;27.90;44.00;;;;;;4980370;28;20424;-76
2023/07/08 07:12:48;;;;;;;5.17;4.77;;;28.00;44.00;;;;;;4981111;28;20453;-77
2023/07/08 07:15:16;;;;;;;5.03;4.63;;;28.00;43.90;;;;;;4981398;28;20441;-77
2023/07/08 07:17:44;;;;;;;5.17;4.77;;;28.10;43.90;;;;;;4966536;28;20452;-77
2023/07/08 07:20:13;;;;;;;5.10;4.70;;;28.20;43.90;;;;;;4967126;28;20430;-77
2023/07/08 07:22:41;;;;;;;4.67;4.37;;;28.20;43.70;;;;;;4980639;28;20476;-77
2023/07/08 07:25:10;;;;;;;4.93;4.53;;;28.30;43.70;;;;;;4981188;28;20446;-77
2023/07/08 07:27:38;;;;;;;5.10;4.60;;;28.40;43.70;;;;;;4978648;28;20522;-77
2023/07/08 07:30:09;;;;;;;4.87;4.57;;;28.50;43.60;;;;;;4973298;28;20438;-76
2023/07/08 07:32:37;;;;;;;4.80;4.50;;;28.50;43.60;;;;;;5007608;23;21792;-79
2023/07/08 07:35:07;;;;;;;4.50;3.97;;;28.60;43.60;;;;;;4991825;28;20444;-79
2023/07/08 07:37:35;;;;;;;4.37;4.07;;;28.70;43.50;;;;;;4989595;28;20460;-79
2023/07/08 07:40:03;;;;;;;4.73;4.37;;;28.80;43.50;;;;;;4992838;28;20453;-79
2023/07/08 07:42:32;;;;;;;5.00;4.50;;;28.90;43.40;;;;;;4990465;28;20436;-79
2023/07/08 07:45:00;;;;;;;4.57;4.27;;;29.00;43.30;;;;;;4974495;28;20449;-80
2023/07/08 07:47:28;;;;;;;4.17;3.97;;;29.10;43.30;;;;;;4973652;28;20876;-80
2023/07/08 07:49:59;;;;;;;4.47;4.10;;;29.20;43.20;;;;;;4973394;28;20427;-82
2023/07/08 07:52:27;;;;;;;3.83;3.63;;;29.30;43.20;;;;;;4974704;28;20536;-81
2023/07/08 07:54:55;;;;;;;4.80;4.40;;;29.40;43.10;;;;;;4972042;28;20485;-80
2023/07/08 07:57:24;;;;;;;4.67;4.27;;;29.50;43.10;;;;;;4974010;28;20521;-80
2023/07/08 07:59:53;;;;;;;4.20;3.90;;;29.60;42.90;;;;;;4970654;28;20433;-80
2023/07/08 08:02:21;;;;;;;4.00;3.80;;;29.80;42.90;;;;;;4966603;28;20426;-81
2023/07/08 08:04:49;;;;;;;4.57;4.27;;;29.90;42.80;;;;;;4964800;28;20428;-80
2023/07/08 08:07:18;;;;;;;4.00;3.70;;;30.00;42.60;;;;;;4969317;28;20470;-80
2023/07/08 08:09:45;;;;;;;5.03;4.30;;;30.20;42.60;;;;;;4975180;28;20438;-80
2023/07/08 08:12:13;;;;;;;3.90;3.60;;;30.30;42.50;;;;;;4974838;28;20450;-81
2023/07/08 08:14:41;;;;;;;3.87;3.67;;;30.40;42.40;;;;;;4973517;28;20478;-79
2023/07/08 08:17:11;;;;;;;4.03;3.80;;;30.50;42.20;;;;;;4971895;28;20458;-80
2023/07/08 08:19:39;;;;;;;3.70;3.50;;;30.70;42.20;;;;;;4980174;28;20427;-81
2023/07/08 08:22:07;;;;;;;9.00;4.07;;;30.80;42.20;;;;;;4974694;28;20409;-80
2023/07/08 08:24:36;;;;;;;3.70;3.50;;;31.00;42.20;;;;;;4974437;28;20471;-80
2023/07/08 08:27:05;;;;;;;4.17;3.90;;;31.10;42.00;;;;;;4973778;28;20449;-80
2023/07/08 08:29:33;;;;;;;3.67;3.47;;;31.20;41.80;;;;;;4972724;28;20516;-81
2023/07/08 08:32:01;;;;;;;4.13;3.83;;;31.30;41.90;;;;;;4970940;28;20542;-80
2023/07/08 08:34:31;;;;;;;3.97;3.63;;;31.50;41.70;;;;;;4970702;28;20514;-82
2023/07/08 08:36:59;;;;;;;3.60;3.40;;;31.60;41.60;;;;;;4978369;28;20913;-81
2023/07/08 08:39:29;;;;;;;3.73;3.53;;;31.70;41.60;;;;;;4972281;28;20499;-80
2023/07/08 08:41:58;;;;;;;3.30;3.10;;;31.90;41.60;;;;;;4972353;28;20467;-79
2023/07/08 08:44:29;;;;;;;3.40;3.20;;;32.00;41.40;;;;;;4972191;28;20467;-79
2023/07/08 08:47:01;;;;;;;3.77;3.47;;;32.10;41.30;;;;;;4972061;28;20481;-79
2023/07/08 08:49:33;;;;;;;3.67;3.47;;;32.30;41.30;;;;;;4968893;28;20421;-79
2023/07/08 08:52:01;;;;;;;3.40;3.20;;;32.40;41.10;;;;;;4973266;28;20453;-79
2023/07/08 08:54:29;;;;;;;3.13;3.00;;;32.60;41.10;;;;;;4971011;28;20565;-80
2023/07/08 08:57:02;;;;;;;3.53;3.43;;;32.70;41.00;;;;;;4967308;28;20864;-80
2023/07/08 08:59:35;;;;;;;3.40;3.20;;;32.80;40.70;;;;;;4967164;28;21031;-78
2023/07/08 09:02:08;;;;;;;3.47;3.37;;;33.00;40.70;;;;;;4972579;28;20886;-80
2023/07/08 09:04:38;;;;;;;3.97;3.67;;;33.20;40.60;;;;;;4977085;28;20449;-78
2023/07/08 09:07:07;;;;;;;3.10;3.00;;;33.30;40.50;;;;;;4969785;28;20454;-79
2023/07/08 09:09:38;;;;;;;3.17;3.07;;;33.50;40.40;;;;;;4971222;28;20458;-78
2023/07/08 09:12:07;;;;;;;3.73;3.60;;;33.60;40.30;;;;;;4983771;28;20524;-80
2023/07/08 09:14:36;;;;;;;3.50;3.30;;;33.80;40.20;;;;;;4972621;28;20501;-80
2023/07/08 09:17:23;;;;;;;3.27;3.17;;;33.90;40.70;;;;;;4975416;28;20455;-79
2023/07/08 09:19:59;;;;;;;3.20;3.10;;;34.10;40.00;;;;;;4969087;28;20445;-80
2023/07/08 09:22:36;;;;;;;3.23;3.13;;;34.30;39.80;;;;;;4978670;28;20456;-78
2023/07/08 09:25:06;;;;;;;2.90;2.80;;;34.40;39.70;;;;;;4971020;28;21037;-81
2023/07/08 09:27:33;;;;;;;3.37;3.17;;;34.60;39.60;;;;;;4975256;28;20474;-80
2023/07/08 09:30:01;;;;;;;3.60;3.40;;;34.80;39.50;;;;;;4979344;28;20471;-79
2023/07/08 09:32:29;;;;;;;3.03;2.93;;;34.90;39.40;;;;;;4975894;28;20506;-79
2023/07/08 09:35:04;;;;;;;2.70;2.60;;;35.10;39.30;;;;;;4968179;28;20470;-79
2023/07/08 09:37:33;;;;;;;2.90;2.80;;;35.20;39.10;;;;;;4972646;28;20408;-82
2023/07/08 09:40:04;;;;;;;3.20;3.03;;;35.40;39.00;;;;;;4967791;28;20468;-79
2023/07/08 09:42:33;;;;;;;3.40;3.20;;;35.50;38.90;;;;;;4975890;28;20474;-78
2023/07/08 09:45:03;;;;;;;2.83;2.73;;;35.70;38.80;;;;;;4975751;28;20433;-81
2023/07/08 09:47:34;;;;;;;2.93;2.77;;;35.80;38.70;;;;;;4972327;28;20534;-79
2023/07/08 09:50:05;;;;;;;3.10;3.00;;;35.90;38.50;;;;;;4961921;28;20446;-80
2023/07/08 09:52:32;;;;;;;2.60;2.50;;;36.10;38.50;;;;;;4972232;28;20498;-80
2023/07/08 09:55:00;;;;;;;2.83;2.73;;;36.30;38.50;;;;;;4967179;28;20564;-80
2023/07/08 09:57:29;;;;;;;3.07;2.93;;;36.40;38.30;;;;;;4982867;28;21037;-81
2023/07/08 09:59:59;;;;;;;2.87;2.77;;;36.50;38.10;;;;;;4972030;28;20457;-79
2023/07/08 10:02:29;;;;;;;3.07;2.93;;;36.70;38.20;;;;;;4978735;28;20478;-79
2023/07/08 10:04:58;;;;;;;3.10;3.00;;;36.90;38.00;;;;;;4969296;28;20922;-80
2023/07/08 10:07:29;;;;;;;3.00;2.90;;;37.10;37.90;;;;;;4974928;28;20479;-82
2023/07/08 10:09:59;;;;;;;2.70;2.60;;;37.20;37.80;;;;;;4974267;28;20450;-79
2023/07/08 10:12:26;;;;;;;2.57;2.47;;;37.40;37.70;;;;;;4970186;28;20517;-79
2023/07/08 10:14:57;;;;;;;2.37;2.27;;;37.50;37.60;;;;;;4973260;28;20478;-78
2023/07/08 10:17:25;;;;;;;2.97;2.80;;;37.70;37.50;;;;;;4980464;28;20540;-80
2023/07/08 10:19:52;;;;;;;2.27;2.17;;;37.80;37.30;;;;;;4972955;28;20446;-81
2023/07/08 10:22:37;;;;;;;2.50;2.40;;;38.00;37.20;;;;;;4975270;28;20474;-80
2023/07/08 10:25:11;;;;;;;2.33;2.23;;;38.20;37.10;;;;;;4973713;28;20450;-79
2023/07/08 10:27:41;;;;;;;2.43;2.43;;;38.40;36.90;;;;;;4974690;28;20513;-80
2023/07/08 10:30:15;;;;;;;2.60;2.50;;;38.50;36.70;;;;;;4961509;28;20997;-80
2023/07/08 10:32:52;;;;;;;2.60;2.50;;;38.70;36.70;;;;;;4977719;28;20487;-80
2023/07/08 10:35:22;;;;;;;2.57;2.47;;;38.90;36.50;;;;;;4966098;28;20512;-82
2023/07/08 10:38:03;;;;;;;2.40;2.30;;;39.00;36.30;;;;;;4974900;28;20537;-81
2023/07/08 10:40:44;;;;;;;2.40;2.30;;;39.20;36.20;;;;;;4967494;28;20478;-82
2023/07/08 10:43:23;;;;;;;2.40;2.40;;;39.40;36.10;;;;;;4977858;28;20457;-85
2023/07/08 10:45:54;;;;;;;2.53;2.43;;;39.60;35.90;;;;;;4984216;28;20444;-84
2023/07/08 10:48:30;;;;;;;2.43;2.33;;;39.80;35.80;;;;;;4974213;28;20442;-83
2023/07/08 10:51:07;;;;;;;2.33;2.23;;;39.90;35.60;;;;;;4977814;28;20485;-81
2023/07/08 10:53:50;;;;;;;2.40;2.27;;;40.10;35.50;;;;;;4970669;28;20539;-82
2023/07/08 10:56:21;;;;;;;2.13;2.13;;;40.30;35.40;;;;;;4961183;28;20513;-81
2023/07/08 10:58:58;;;;;;;2.30;2.30;;;40.50;35.20;;;;;;4972904;28;20537;-81
2023/07/08 11:01:29;;;;;;;2.23;2.23;;;40.70;35.10;;;;;;4982737;28;20449;-82
2023/07/08 11:04:13;;;;;;;2.00;1.90;;;40.80;34.90;;;;;;4975237;28;21045;-83
2023/07/08 11:06:46;;;;;;;1.93;1.93;;;41.00;34.80;;;;;;4974090;28;20453;-83
2023/07/08 11:09:18;;;;;;;2.00;2.00;;;41.20;34.60;;;;;;4967594;28;20564;-84
2023/07/08 11:11:48;;;;;;;2.00;2.00;;;41.40;34.50;;;;;;4974450;28;20500;-81
2023/07/08 11:14:18;;;;;;;1.80;1.80;;;41.50;34.20;;;;;;4966368;28;20521;-83
2023/07/08 11:16:48;;;;;;;2.30;2.20;;;41.70;34.10;;;;;;4969415;28;20537;-79
2023/07/08 11:19:18;;;;;;;9.43;1.83;;;41.90;33.90;;;;;;4974099;28;20446;-77
2023/07/08 11:21:47;;;;;;;2.30;2.10;;;41.50;32.50;;;;;;4980558;28;20614;-77
2023/07/08 11:24:21;;;;;;;2.67;2.57;;;41.40;31.90;;;;;;4974934;28;20555;-79
2023/07/08 11:26:51;;;;;;;2.67;2.57;;;41.20;31.20;;;;;;4970191;28;20897;-77
2023/07/08 11:29:21;;;;;;;2.77;2.60;;;41.00;30.90;;;;;;4972386;28;20531;-78
2023/07/08 11:31:49;;;;;;;3.13;3.03;;;40.90;30.70;;;;;;4972308;28;20470;-79
2023/07/08 11:34:18;;;;;;;3.70;3.40;;;40.80;30.40;;;;;;4973369;28;20639;-78
2023/07/08 11:36:46;;;;;;;5.50;5.00;;;40.80;30.50;;;;;;4979797;28;20536;-76
2023/07/08 11:39:33;;;;;;;4.13;3.93;;;40.70;30.40;;;;;;4970550;28;20602;-77
2023/07/08 11:42:17;;;;;;;3.73;3.43;;;40.60;30.60;;;;;;4976463;28;20450;-78
2023/07/08 11:44:47;;;;;;;3.70;3.50;;;40.50;30.10;;;;;;4972139;28;20478;-78
2023/07/08 11:47:19;;;;;;;3.80;3.50;;;40.50;29.90;;;;;;4965206;28;21021;-78
2023/07/08 11:49:48;;;;;;;3.27;3.17;;;40.40;30.00;;;;;;4971145;28;20446;-77
2023/07/08 11:52:19;;;;;;;4.80;3.30;;;40.40;30.20;;;;;;4971212;28;20501;-77
2023/07/08 11:54:49;;;;;;;3.30;3.10;;;40.40;30.40;;;;;;4975021;28;20473;-75
2023/07/08 11:57:19;;;;;;;3.17;2.87;;;40.40;30.00;;;;;;4973870;28;20442;-77
2023/07/08 11:59:47;;;;;;;4.30;3.90;;;40.20;29.40;;;;;;4972599;28;20539;-78
2023/07/08 12:02:16;;;;;;;6.57;3.43;;;40.10;29.30;;;;;;4973247;28;20541;-76
2023/07/08 12:04:56;;;;;;;3.30;3.10;;;40.20;29.30;;;;;;4973214;28;20939;-76
2023/07/08 12:07:31;;;;;;;4.03;3.20;;;40.30;29.30;;;;;;4972864;28;20445;-75
2023/07/08 12:10:06;;;;;;;4.20;2.87;;;40.30;29.10;;;;;;4972406;28;20512;-76
2023/07/08 12:12:36;;;;;;;2.60;2.50;;;40.30;29.30;;;;;;4969691;28;20572;-76
2023/07/08 12:15:12;;;;;;;3.20;2.83;;;40.30;29.00;;;;;;4970851;28;20500;-75
2023/07/08 12:17:41;;;;;;;3.23;3.03;;;40.40;29.00;;;;;;4971731;28;20441;-76
2023/07/08 12:20:17;;;;;;;2.83;2.73;;;40.40;28.70;;;;;;4976832;28;20496;-76
2023/07/08 12:22:45;;;;;;;3.33;3.23;;;40.40;28.30;;;;;;4972105;28;20545;-74
2023/07/08 12:25:16;;;;;;;3.00;2.70;;;40.40;28.40;;;;;;4972197;28;20456;-76
2023/07/08 12:27:44;;;;;;;5.40;3.10;;;40.40;27.90;;;;;;4972264;28;20532;-76
2023/07/08 12:30:13;;;;;;;3.10;3.00;;;40.40;28.00;;;;;;4970480;28;20477;-78
2023/07/08 12:32:41;;;;;;;2.90;2.80;;;40.40;28.00;;;;;;4970691;28;20477;-77
2023/07/08 12:35:15;;;;;;;2.80;2.70;;;40.40;28.10;;;;;;4970993;28;20473;-76
2023/07/08 12:37:43;;;;;;;3.57;3.30;;;40.30;27.70;;;;;;4972024;28;20521;-77
2023/07/08 12:40:12;;;;;;;3.10;2.80;;;40.30;27.40;;;;;;4971476;28;20545;-77
2023/07/08 12:42:41;;;;;;;3.40;3.10;;;40.40;27.60;;;;;;4972153;28;20493;-76
2023/07/08 12:45:16;;;;;;;3.00;2.80;;;40.40;27.60;;;;;;4970472;28;20521;-76
2023/07/08 12:47:44;;;;;;;3.13;2.83;;;40.50;27.80;;;;;;4969022;28;20453;-76
2023/07/08 12:50:12;;;;;;;3.70;3.30;;;40.30;26.30;;;;;;4971866;28;20580;-76
2023/07/08 12:52:40;;;;;;;3.17;2.97;;;40.20;26.30;;;;;;4971650;28;20490;-77
2023/07/08 12:55:09;;;;;;;4.30;3.20;;;40.10;25.80;;;;;;4971418;28;20477;-77